Time;durP1;ratioP1;P1;durP2;ratioP2;P2;SDS_P1;SDS_P2;PMS_P1;PMS_P2;Temp;Humidity;BMP_temperature;BMP_pressure;BME280_temperature;BME280_humidity;BME280_pressure;Samples;Min_cycle;Max_cycle;Signal;HPM_P1;HPM_P2
2022/05/08 00:00:31;;;;;;;16.70;10.88;;;15.70;80.60;;;;;;4974466;28;20030;-16
2022/05/08 00:02:58;;;;;;;15.40;10.20;;;15.70;80.60;;;;;;4973370;28;20499;-16
2022/05/08 00:05:25;;;;;;;14.70;10.45;;;15.60;80.70;;;;;;4989571;28;20031;-16
2022/05/08 00:07:51;;;;;;;18.05;12.25;;;15.60;80.90;;;;;;4974701;28;20406;-16
2022/05/08 00:10:18;;;;;;;15.90;11.50;;;15.50;81.10;;;;;;4974180;28;20514;-16
2022/05/08 00:12:44;;;;;;;14.45;9.77;;;15.50;81.20;;;;;;4974716;28;20031;-16
2022/05/08 00:15:11;;;;;;;13.90;9.20;;;15.40;81.50;;;;;;4974761;28;20026;-15
2022/05/08 00:17:37;;;;;;;12.07;8.60;;;15.40;81.70;;;;;;4974733;28;20030;-16
2022/05/08 00:20:06;;;;;;;13.55;9.25;;;15.40;81.80;;;;;;4974409;28;20378;-17
2022/05/08 00:22:33;;;;;;;19.52;11.25;;;15.30;82.00;;;;;;4974364;28;20031;-16
2022/05/08 00:25:03;;;;;;;13.85;9.45;;;15.30;82.10;;;;;;4974633;28;20038;-16
2022/05/08 00:27:29;;;;;;;12.10;8.02;;;15.30;82.20;;;;;;4974667;28;20027;-16
2022/05/08 00:29:55;;;;;;;13.77;8.85;;;15.30;82.30;;;;;;4974449;28;20039;-17
2022/05/08 00:32:21;;;;;;;12.13;9.07;;;15.30;82.40;;;;;;4974184;28;20027;-16
2022/05/08 00:34:48;;;;;;;11.95;8.80;;;15.30;82.40;;;;;;4974523;28;20034;-15
2022/05/08 00:37:14;;;;;;;14.77;8.43;;;15.30;82.40;;;;;;4974206;28;20050;-16
2022/05/08 00:39:40;;;;;;;13.48;8.73;;;15.30;82.40;;;;;;4974268;28;20065;-16
2022/05/08 00:42:06;;;;;;;11.48;8.27;;;15.30;82.40;;;;;;4974282;28;20031;-16
2022/05/08 00:44:32;;;;;;;12.55;8.63;;;15.40;82.30;;;;;;4974316;28;20050;-17
2022/05/08 00:46:58;;;;;;;10.40;7.32;;;15.40;82.30;;;;;;4974143;28;20475;-16
2022/05/08 00:49:24;;;;;;;9.75;6.75;;;15.40;82.20;;;;;;4974038;28;20026;-15
2022/05/08 00:51:50;;;;;;;12.85;7.68;;;15.40;82.20;;;;;;4974157;28;20038;-17
2022/05/08 00:54:17;;;;;;;10.48;6.68;;;15.40;82.30;;;;;;4973989;28;20015;-17
2022/05/08 00:56:43;;;;;;;10.82;7.00;;;15.40;82.10;;;;;;4974335;28;20042;-15
2022/05/08 00:59:10;;;;;;;10.85;7.15;;;15.40;82.10;;;;;;4974310;28;20379;-17
2022/05/08 01:01:37;;;;;;;8.63;5.78;;;15.40;82.00;;;;;;4976434;28;20042;-16
2022/05/08 01:04:04;;;;;;;10.65;7.22;;;15.40;82.00;;;;;;4978094;28;20041;-16
2022/05/08 01:06:32;;;;;;;9.82;6.63;;;15.40;82.00;;;;;;4977695;28;20454;-17
2022/05/08 01:08:58;;;;;;;12.18;7.93;;;15.40;82.00;;;;;;4977953;28;20026;-15
2022/05/08 01:11:25;;;;;;;9.65;6.15;;;15.40;81.90;;;;;;4977711;28;20493;-16
2022/05/08 01:13:51;;;;;;;9.07;5.97;;;15.40;81.80;;;;;;4977376;28;20086;-16
2022/05/08 01:16:19;;;;;;;9.13;6.05;;;15.40;81.80;;;;;;4977441;28;20054;-13
2022/05/08 01:18:47;;;;;;;9.18;6.30;;;15.40;81.90;;;;;;4977583;28;20434;-16
2022/05/08 01:21:18;;;;;;;12.20;7.10;;;15.40;81.80;;;;;;4977916;28;20050;-16
2022/05/08 01:23:46;;;;;;;9.15;6.20;;;15.40;81.70;;;;;;4977788;28;20034;-15
2022/05/08 01:26:12;;;;;;;9.23;6.18;;;15.40;81.70;;;;;;4977740;28;20054;-17
2022/05/08 01:28:38;;;;;;;8.77;6.07;;;15.40;81.70;;;;;;4977833;28;20408;-16
2022/05/08 01:31:04;;;;;;;11.50;6.82;;;15.40;81.70;;;;;;4977299;28;20027;-18
2022/05/08 01:33:31;;;;;;;10.07;5.10;;;15.40;81.80;;;;;;4977325;28;20026;-15
2022/05/08 01:35:57;;;;;;;7.85;5.47;;;15.40;81.60;;;;;;4977766;28;20042;-17
2022/05/08 01:38:24;;;;;;;7.72;5.22;;;15.40;81.40;;;;;;4977112;28;20043;-14
2022/05/08 01:40:55;;;;;;;8.65;5.32;;;15.40;81.50;;;;;;4977450;28;20105;-15
2022/05/08 01:43:20;;;;;;;9.13;6.22;;;15.40;81.40;;;;;;4977508;28;20031;-16
2022/05/08 01:45:47;;;;;;;9.13;5.18;;;15.40;81.30;;;;;;4977183;28;20058;-17
2022/05/08 01:48:23;;;;;;;7.53;4.93;;;15.40;81.20;;;;;;4977262;28;20100;-18
2022/05/08 01:50:51;;;;;;;9.55;5.85;;;15.40;81.20;;;;;;4977336;28;20043;-17
2022/05/08 01:53:22;;;;;;;9.10;5.97;;;15.40;81.20;;;;;;4977299;28;20019;-16
2022/05/08 01:55:54;;;;;;;11.25;6.07;;;15.40;81.10;;;;;;4976936;28;20031;-17
2022/05/08 01:58:28;;;;;;;9.10;5.73;;;15.40;81.10;;;;;;4977066;28;20039;-15
2022/05/08 02:00:55;;;;;;;6.85;5.07;;;15.40;81.00;;;;;;4976876;28;20077;-16
2022/05/08 02:03:22;;;;;;;8.93;5.05;;;15.40;80.90;;;;;;4977092;28;20047;-15
2022/05/08 02:05:49;;;;;;;9.65;5.10;;;15.40;80.90;;;;;;4976871;28;20023;-14
2022/05/08 02:08:15;;;;;;;7.25;4.90;;;15.40;80.90;;;;;;4976732;28;20023;-14
2022/05/08 02:10:41;;;;;;;7.30;5.18;;;15.40;80.90;;;;;;4976926;28;20035;-16
2022/05/08 02:13:08;;;;;;;9.63;5.78;;;15.40;80.90;;;;;;4975535;28;20407;-17
2022/05/08 02:15:35;;;;;;;7.07;4.72;;;15.40;80.90;;;;;;4976799;28;20066;-15
2022/05/08 02:18:03;;;;;;;8.25;5.13;;;15.40;80.90;;;;;;4976629;28;20027;-14
2022/05/08 02:20:30;;;;;;;8.88;6.00;;;15.40;80.90;;;;;;4976621;28;20102;-15
2022/05/08 02:22:56;;;;;;;8.45;5.20;;;15.40;80.80;;;;;;4976498;28;20376;-14
2022/05/08 02:25:22;;;;;;;8.15;4.63;;;15.40;80.70;;;;;;4975150;28;20078;-13
2022/05/08 02:27:49;;;;;;;6.18;4.13;;;15.40;80.70;;;;;;4976666;28;20105;-16
2022/05/08 02:30:18;;;;;;;6.82;4.40;;;15.40;80.70;;;;;;4975915;28;20027;-17
2022/05/08 02:32:43;;;;;;;10.85;4.78;;;15.40;80.80;;;;;;4976256;28;20472;-17
2022/05/08 02:35:10;;;;;;;10.07;5.10;;;15.40;80.70;;;;;;4976642;28;20494;-16
2022/05/08 02:37:38;;;;;;;5.97;4.00;;;15.40;80.60;;;;;;4976323;28;20438;-15
2022/05/08 02:40:08;;;;;;;6.95;4.70;;;15.50;80.50;;;;;;4976250;28;20022;-15
2022/05/08 02:42:36;;;;;;;6.50;4.13;;;15.40;80.40;;;;;;4974697;28;20019;-15
2022/05/08 02:45:03;;;;;;;6.80;3.80;;;15.40;80.40;;;;;;4976256;28;20030;-14
2022/05/08 02:47:31;;;;;;;4.97;3.60;;;15.40;80.30;;;;;;4975985;28;20495;-16
2022/05/08 02:49:57;;;;;;;6.50;4.30;;;15.50;80.20;;;;;;4976096;28;20039;-16
2022/05/08 02:52:23;;;;;;;5.93;3.65;;;15.50;80.20;;;;;;4975604;28;20053;-15
2022/05/08 02:54:49;;;;;;;7.18;4.30;;;15.40;80.10;;;;;;4974537;28;20126;-16
2022/05/08 03:00:06;;;;;;;6.22;3.88;;;15.40;80.10;;;;;;4976106;28;20034;-16
2022/05/08 03:02:33;;;;;;;4.70;3.15;;;15.40;80.10;;;;;;4975590;28;20139;-13
2022/05/08 03:05:00;;;;;;;6.22;3.60;;;15.40;80.00;;;;;;4975928;28;20031;-16
2022/05/08 03:07:26;;;;;;;4.63;3.20;;;15.50;79.90;;;;;;4975774;28;20029;-16
2022/05/08 03:09:52;;;;;;;5.05;3.60;;;15.50;79.90;;;;;;4975583;28;20113;-16
2022/05/08 03:12:18;;;;;;;4.57;3.28;;;15.50;79.80;;;;;;4975650;28;20065;-17
2022/05/08 03:14:44;;;;;;;5.18;3.30;;;15.40;79.90;;;;;;4975267;28;20050;-16
2022/05/08 03:17:10;;;;;;;4.40;3.00;;;15.50;79.90;;;;;;4975482;28;20114;-16
2022/05/08 03:19:36;;;;;;;4.88;3.00;;;15.50;79.80;;;;;;4975418;28;20121;-15
2022/05/08 03:22:02;;;;;;;4.55;3.20;;;15.50;79.80;;;;;;4974101;28;20486;-15
2022/05/08 03:24:29;;;;;;;6.03;3.60;;;15.50;80.00;;;;;;4990015;28;20077;-16
2022/05/08 03:26:59;;;;;;;3.60;2.92;;;15.50;79.90;;;;;;4990071;28;20045;-17
2022/05/08 03:29:26;;;;;;;3.80;2.95;;;15.50;79.90;;;;;;4975254;28;20125;-15
2022/05/08 03:31:54;;;;;;;4.75;3.30;;;15.50;79.90;;;;;;4975467;28;20058;-15
2022/05/08 03:34:19;;;;;;;5.35;3.17;;;15.50;79.90;;;;;;4975238;28;20105;-15
2022/05/08 03:36:45;;;;;;;4.72;3.20;;;15.50;79.80;;;;;;4975420;28;20031;-16
2022/05/08 03:39:11;;;;;;;5.03;3.53;;;15.50;79.80;;;;;;4975333;28;20105;-15
2022/05/08 03:41:38;;;;;;;4.28;3.20;;;15.60;79.70;;;;;;4973756;28;20531;-15
2022/05/08 03:44:05;;;;;;;4.55;3.25;;;15.50;79.60;;;;;;4974958;28;20031;-15
2022/05/08 03:46:30;;;;;;;5.65;3.60;;;15.60;79.60;;;;;;4974766;28;20026;-14
2022/05/08 03:48:56;;;;;;;6.00;4.07;;;15.60;79.50;;;;;;4975291;28;20042;-13
2022/05/08 03:51:22;;;;;;;4.93;3.50;;;15.60;79.40;;;;;;4975083;28;20043;-16
2022/05/08 03:53:48;;;;;;;5.78;3.75;;;15.60;79.40;;;;;;4974775;28;20027;-16
2022/05/08 03:56:15;;;;;;;7.95;4.15;;;15.60;79.30;;;;;;4974613;28;20142;-16
2022/05/08 03:58:42;;;;;;;6.22;3.67;;;15.60;79.20;;;;;;4975237;28;20487;-14
2022/05/08 04:01:08;;;;;;;5.85;3.60;;;15.60;79.10;;;;;;4973417;28;20054;-16
2022/05/08 04:03:34;;;;;;;4.25;3.28;;;15.60;79.10;;;;;;4974849;28;20027;-15
2022/05/08 04:06:02;;;;;;;6.80;4.20;;;15.60;79.10;;;;;;4973449;28;20414;-15
2022/05/08 04:08:28;;;;;;;3.85;3.00;;;15.60;79.10;;;;;;4974670;28;20031;-16
2022/05/08 04:10:56;;;;;;;3.78;3.00;;;15.60;79.00;;;;;;4973252;28;20402;-16
2022/05/08 04:13:22;;;;;;;4.50;3.28;;;15.70;78.90;;;;;;4974512;28;20062;-16
2022/05/08 04:18:31;;;;;;;;;;;15.70;78.90;;;;;;4974760;28;20528;-16
2022/05/08 04:20:57;;;;;;;5.15;3.08;;;15.70;79.10;;;;;;4974898;28;19906;-16
2022/05/08 04:26:07;;;;;;;;;;;15.80;78.80;;;;;;4974937;28;20121;-15
2022/05/08 04:28:33;;;;;;;5.25;3.30;;;15.80;78.70;;;;;;4974189;28;19946;-15
2022/05/08 04:30:59;;;;;;;5.45;3.85;;;15.80;78.70;;;;;;4974189;28;20081;-15
2022/05/08 04:33:25;;;;;;;4.88;3.58;;;15.80;78.60;;;;;;4974707;28;20026;-17
2022/05/08 04:35:50;;;;;;;7.05;4.50;;;15.80;78.40;;;;;;4976427;28;20069;-16
2022/05/08 04:38:16;;;;;;;5.40;3.95;;;15.80;78.50;;;;;;4980593;28;20027;-17
2022/05/08 04:40:42;;;;;;;6.30;4.55;;;15.80;78.40;;;;;;4981204;28;20023;-15
2022/05/08 04:43:08;;;;;;;8.25;4.38;;;15.80;78.30;;;;;;4981049;28;20034;-15
2022/05/08 04:45:34;;;;;;;6.43;4.22;;;15.80;78.30;;;;;;4980567;28;20545;-15
2022/05/08 04:48:00;;;;;;;7.07;4.70;;;15.90;78.30;;;;;;4980968;28;20030;-16
2022/05/08 04:50:26;;;;;;;5.63;4.00;;;15.90;78.30;;;;;;4980357;28;20471;-16
2022/05/08 04:52:52;;;;;;;7.07;4.50;;;15.90;78.30;;;;;;4980841;28;20030;-17
2022/05/08 04:55:18;;;;;;;6.55;4.13;;;15.90;78.30;;;;;;4980944;28;20034;-16
2022/05/08 04:57:47;;;;;;;7.80;4.40;;;15.90;78.10;;;;;;4980811;28;20027;-16
2022/05/08 05:00:13;;;;;;;7.65;4.70;;;15.90;78.10;;;;;;4980593;28;20385;-13
2022/05/08 05:02:39;;;;;;;8.13;4.93;;;16.00;78.00;;;;;;4980853;28;20038;-16
2022/05/08 05:05:06;;;;;;;7.70;4.93;;;16.00;78.10;;;;;;4995810;28;20026;-13
2022/05/08 05:07:32;;;;;;;6.85;4.57;;;16.10;77.60;;;;;;4980758;28;20105;-15
2022/05/08 05:09:58;;;;;;;7.40;4.40;;;16.10;77.70;;;;;;5062536;23;20138;-16
2022/05/08 05:12:23;;;;;;;7.35;4.50;;;16.20;77.40;;;;;;4980270;28;20378;-17
2022/05/08 05:14:49;;;;;;;9.05;4.65;;;16.20;77.40;;;;;;4980713;28;20102;-17
2022/05/08 05:17:15;;;;;;;7.10;5.00;;;16.20;77.50;;;;;;4980637;28;20057;-18
2022/05/08 05:19:41;;;;;;;7.28;4.93;;;16.30;77.20;;;;;;4980678;28;20489;-15
2022/05/08 05:22:06;;;;;;;5.32;4.10;;;16.30;77.40;;;;;;4980486;28;20019;-16
2022/05/08 05:24:32;;;;;;;5.70;3.95;;;16.40;77.20;;;;;;4980129;28;20033;-17
2022/05/08 05:26:59;;;;;;;5.80;3.88;;;16.50;77.10;;;;;;4981197;28;20101;-16
2022/05/08 05:29:25;;;;;;;5.80;4.18;;;16.50;76.90;;;;;;4980420;28;20058;-16
2022/05/08 05:31:50;;;;;;;7.30;5.20;;;16.60;76.70;;;;;;4980279;28;20061;-16
2022/05/08 05:34:16;;;;;;;7.13;4.93;;;16.60;76.50;;;;;;4980367;28;20073;-16
2022/05/08 05:36:42;;;;;;;8.48;5.20;;;16.70;76.60;;;;;;4980188;28;20391;-17
2022/05/08 05:39:08;;;;;;;7.68;5.18;;;16.80;75.70;;;;;;5049085;23;20082;-20
2022/05/08 05:41:34;;;;;;;7.88;5.45;;;16.80;76.00;;;;;;4980341;28;20419;-19
2022/05/08 05:43:59;;;;;;;7.45;5.28;;;16.90;75.70;;;;;;4980475;28;20030;-19
2022/05/08 05:49:10;;;;;;;7.72;4.97;;;16.90;75.10;;;;;;4976341;28;20037;-18
2022/05/08 05:51:36;;;;;;;7.63;5.03;;;17.00;75.00;;;;;;4977097;28;20035;-19
2022/05/08 05:54:02;;;;;;;8.90;5.20;;;17.10;74.40;;;;;;4977072;28;20042;-19
2022/05/08 05:56:27;;;;;;;8.63;5.10;;;17.00;73.20;;;;;;4977063;28;20073;-19
2022/05/08 05:58:53;;;;;;;8.82;5.38;;;17.10;71.80;;;;;;4976920;28;20057;-19
2022/05/08 06:01:19;;;;;;;7.70;5.40;;;17.10;72.60;;;;;;4977255;28;20019;-19
2022/05/08 06:03:45;;;;;;;8.18;5.47;;;17.10;71.50;;;;;;4976803;28;20030;-19
2022/05/08 06:06:12;;;;;;;7.72;5.13;;;17.20;72.70;;;;;;4976915;28;20034;-19
2022/05/08 06:08:38;;;;;;;8.30;5.20;;;17.30;71.30;;;;;;4977188;28;20027;-20
2022/05/08 06:11:07;;;;;;;7.25;5.32;;;17.20;70.40;;;;;;4975473;28;20035;-19
2022/05/08 06:13:33;;;;;;;8.43;5.38;;;17.30;70.60;;;;;;4975446;28;20031;-19
2022/05/08 06:15:59;;;;;;;8.30;5.78;;;17.30;69.70;;;;;;4976934;28;20086;-20
2022/05/08 06:18:25;;;;;;;9.07;6.40;;;17.40;70.50;;;;;;4976733;28;20077;-19
2022/05/08 06:20:53;;;;;;;8.85;5.38;;;17.40;70.00;;;;;;4976824;28;20043;-19
2022/05/08 06:23:19;;;;;;;9.60;6.45;;;17.40;69.00;;;;;;4976521;28;20023;-19
2022/05/08 06:25:45;;;;;;;9.43;6.25;;;17.50;68.60;;;;;;4976491;28;20073;-20
2022/05/08 06:28:11;;;;;;;10.73;6.57;;;17.50;68.80;;;;;;4976671;28;20054;-20
2022/05/08 06:30:37;;;;;;;9.32;6.00;;;17.70;67.70;;;;;;4976061;28;20023;-20
2022/05/08 06:33:02;;;;;;;9.52;6.07;;;17.70;68.00;;;;;;4976809;28;20038;-19
2022/05/08 06:35:28;;;;;;;8.35;6.30;;;17.90;68.40;;;;;;4976476;28;20034;-18
2022/05/08 06:37:54;;;;;;;9.70;6.68;;;18.10;68.20;;;;;;4975950;28;20051;-19
2022/05/08 06:40:21;;;;;;;9.15;6.63;;;18.20;67.40;;;;;;4976216;28;20067;-20
2022/05/08 06:42:47;;;;;;;10.43;6.70;;;18.40;67.20;;;;;;4976381;28;20164;-19
2022/05/08 06:45:13;;;;;;;9.35;5.85;;;18.50;67.90;;;;;;4976081;28;20030;-19
2022/05/08 06:47:41;;;;;;;8.73;6.15;;;18.60;66.80;;;;;;4976356;28;20027;-19
2022/05/08 06:50:08;;;;;;;10.40;6.50;;;18.60;66.50;;;;;;4976093;28;20034;-19
2022/05/08 06:52:34;;;;;;;8.00;5.80;;;18.70;66.90;;;;;;4975654;28;20031;-19
2022/05/08 06:55:00;;;;;;;9.35;6.88;;;18.70;66.50;;;;;;4976144;28;20023;-20
2022/05/08 06:57:26;;;;;;;9.57;6.05;;;18.80;65.60;;;;;;4974675;28;20058;-18
2022/05/08 07:02:43;;;;;;;11.73;6.38;;;18.90;65.10;;;;;;4975658;28;20033;-19
2022/05/08 07:05:09;;;;;;;9.32;6.88;;;18.90;65.60;;;;;;4976243;28;20027;-18
2022/05/08 07:07:35;;;;;;;11.23;7.00;;;19.00;65.20;;;;;;4975862;28;20414;-19
2022/05/08 07:10:02;;;;;;;10.18;6.95;;;19.10;65.20;;;;;;4975499;28;20081;-19
2022/05/08 07:12:28;;;;;;;8.35;6.38;;;19.20;65.30;;;;;;4975451;28;20080;-19
2022/05/08 07:14:58;;;;;;;8.75;6.55;;;19.20;63.00;;;;;;4975806;28;20034;-19
2022/05/08 07:17:24;;;;;;;9.80;7.40;;;19.20;64.60;;;;;;4975763;28;20035;-20
2022/05/08 07:19:51;;;;;;;9.77;6.82;;;19.30;64.30;;;;;;4975923;28;20034;-19
2022/05/08 07:22:17;;;;;;;8.85;7.25;;;19.40;63.60;;;;;;4975161;28;20089;-18
2022/05/08 07:24:43;;;;;;;8.27;6.40;;;19.40;63.50;;;;;;4975567;28;20033;-18
2022/05/08 07:27:11;;;;;;;8.77;6.90;;;19.40;63.00;;;;;;4975552;28;20031;-18
2022/05/08 07:29:42;;;;;;;9.30;6.90;;;19.40;63.40;;;;;;4975611;28;20054;-18
2022/05/08 07:32:08;;;;;;;9.18;6.55;;;19.40;63.10;;;;;;4975615;28;20082;-19
2022/05/08 07:37:18;;;;;;;12.27;7.78;;;19.30;64.10;;;;;;4975674;28;20078;-18
2022/05/08 07:39:44;;;;;;;9.00;6.70;;;19.20;64.40;;;;;;4974863;28;20047;-19
2022/05/08 07:42:10;;;;;;;9.75;7.28;;;19.10;64.20;;;;;;4973963;28;20029;-19
2022/05/08 07:44:36;;;;;;;10.10;6.53;;;19.10;64.00;;;;;;4974725;28;20125;-18
2022/05/08 07:47:03;;;;;;;9.65;7.32;;;19.10;65.10;;;;;;4975267;28;20034;-19
2022/05/08 07:49:29;;;;;;;9.60;7.15;;;19.10;64.80;;;;;;4974999;28;20034;-18
2022/05/08 07:51:55;;;;;;;10.63;7.22;;;19.10;64.70;;;;;;4975255;28;20166;-18
2022/05/08 07:54:21;;;;;;;10.43;7.68;;;19.10;64.60;;;;;;4974885;28;20165;-18
2022/05/08 07:56:47;;;;;;;9.65;6.95;;;19.10;64.10;;;;;;4974911;28;20469;-18
2022/05/08 07:59:13;;;;;;;11.23;7.88;;;19.10;64.90;;;;;;4975060;28;20031;-18
2022/05/08 08:01:39;;;;;;;11.30;7.60;;;19.10;64.60;;;;;;4974732;28;20529;-19
2022/05/08 08:04:05;;;;;;;10.10;7.32;;;19.20;64.80;;;;;;4974972;28;20082;-18
2022/05/08 08:06:32;;;;;;;10.68;7.50;;;19.30;64.50;;;;;;4974425;28;20031;-19
2022/05/08 08:08:59;;;;;;;12.55;7.60;;;19.40;63.80;;;;;;4974843;28;20482;-18
2022/05/08 08:11:25;;;;;;;9.85;7.60;;;19.60;63.90;;;;;;4973762;28;20027;-18
2022/05/08 08:13:51;;;;;;;13.27;8.10;;;19.70;63.40;;;;;;4974610;28;20081;-19
2022/05/08 08:16:17;;;;;;;12.00;8.13;;;19.90;63.40;;;;;;4974394;28;20022;-20
2022/05/08 08:18:44;;;;;;;9.10;7.00;;;20.00;63.20;;;;;;4973239;28;20031;-19
2022/05/08 08:21:14;;;;;;;10.48;7.85;;;20.20;63.40;;;;;;4974871;28;20026;-19
2022/05/08 08:23:42;;;;;;;10.40;8.13;;;20.40;62.30;;;;;;4974577;28;20457;-21
2022/05/08 08:26:10;;;;;;;9.02;7.45;;;20.50;60.80;;;;;;4974487;28;20058;-19
2022/05/08 08:28:37;;;;;;;11.85;8.38;;;20.60;61.70;;;;;;4974134;28;20029;-19
2022/05/08 08:31:06;;;;;;;11.77;8.10;;;20.80;62.10;;;;;;4974352;28;20027;-20
2022/05/08 08:33:32;;;;;;;12.07;8.68;;;20.90;62.10;;;;;;4974291;28;20038;-20
2022/05/08 08:35:58;;;;;;;12.32;8.05;;;21.00;61.30;;;;;;4974514;28;20027;-19
2022/05/08 08:38:24;;;;;;;13.05;9.27;;;21.10;60.40;;;;;;4973929;28;20054;-20
2022/05/08 08:40:51;;;;;;;12.93;8.35;;;21.40;60.40;;;;;;4974613;28;20025;-19
2022/05/08 08:43:18;;;;;;;10.95;8.13;;;21.60;59.10;;;;;;4972998;28;20027;-19
2022/05/08 08:48:32;;;;;;;11.40;8.30;;;22.10;58.90;;;;;;4974363;28;20093;-20
2022/05/08 08:51:01;;;;;;;11.40;8.38;;;22.10;56.00;;;;;;4974083;28;20031;-19
2022/05/08 08:53:28;;;;;;;13.27;8.23;;;22.10;53.80;;;;;;4973968;28;20031;-18
2022/05/08 08:55:56;;;;;;;10.77;8.07;;;22.10;55.80;;;;;;4974504;28;20471;-18
2022/05/08 08:58:22;;;;;;;10.63;7.50;;;22.00;53.50;;;;;;4973966;28;20140;-19
2022/05/08 09:00:51;;;;;;;13.60;8.52;;;22.20;55.00;;;;;;4972918;28;20038;-20
2022/05/08 09:03:25;;;;;;;14.10;11.30;;;22.20;54.40;;;;;;4974973;28;20481;-19
2022/05/08 09:05:58;;;;;;;10.02;7.95;;;22.40;56.10;;;;;;4974424;28;20027;-20
2022/05/08 09:08:32;;;;;;;12.05;8.48;;;22.50;53.90;;;;;;4973778;28;20027;-19
2022/05/08 09:10:59;;;;;;;10.95;8.07;;;22.60;55.10;;;;;;4974362;28;20027;-19
2022/05/08 09:13:27;;;;;;;11.30;8.45;;;22.50;53.80;;;;;;4974006;28;20027;-19
2022/05/08 09:16:05;;;;;;;11.27;8.63;;;22.50;53.90;;;;;;4973965;28;20125;-19
2022/05/08 09:18:46;;;;;;;12.52;8.02;;;22.30;52.60;;;;;;4973784;28;20483;-19
2022/05/08 09:24:12;;;;;;;15.10;7.43;;;22.10;53.80;;;;;;4977906;28;20037;-18
2022/05/08 09:26:39;;;;;;;9.10;7.13;;;22.00;53.50;;;;;;4976346;28;20486;-20
2022/05/08 09:29:05;;;;;;;10.30;7.43;;;21.90;53.80;;;;;;4977524;28;20051;-19
2022/05/08 09:31:40;;;;;;;11.45;7.20;;;22.00;54.90;;;;;;4977418;28;20038;-18
2022/05/08 09:34:06;;;;;;;9.20;6.72;;;22.10;52.90;;;;;;4977644;28;20585;-17
2022/05/08 09:36:32;;;;;;;11.02;7.85;;;22.20;54.10;;;;;;4977196;28;20109;-18
2022/05/08 09:39:00;;;;;;;12.35;7.50;;;22.20;53.10;;;;;;4976986;28;20410;-17
2022/05/08 09:41:32;;;;;;;13.00;8.25;;;22.00;54.00;;;;;;4977591;28;20018;-18
2022/05/08 09:44:24;;;;;;;11.18;7.43;;;22.00;53.30;;;;;;4977569;28;20101;-19
2022/05/08 09:46:50;;;;;;;10.18;6.90;;;21.90;51.70;;;;;;4976133;28;20038;-20
2022/05/08 09:49:21;;;;;;;14.00;8.18;;;21.90;53.50;;;;;;4977080;28;20031;-20
2022/05/08 09:51:49;;;;;;;10.75;7.80;;;22.00;53.40;;;;;;4975845;28;20029;-19
2022/05/08 09:54:17;;;;;;;11.80;7.63;;;22.10;54.70;;;;;;4976857;28;20041;-19
2022/05/08 09:56:47;;;;;;;9.40;7.10;;;22.00;51.90;;;;;;4977026;28;20521;-21
2022/05/08 09:59:14;;;;;;;11.13;7.78;;;22.00;51.00;;;;;;4977526;28;20030;-19
2022/05/08 10:01:42;;;;;;;12.68;7.43;;;22.10;52.30;;;;;;4977366;28;20035;-20
2022/05/08 10:04:09;;;;;;;13.10;7.63;;;22.10;52.40;;;;;;4977179;28;20030;-16
2022/05/08 10:06:40;;;;;;;13.10;8.43;;;22.20;53.80;;;;;;4976680;28;20502;-20
2022/05/08 10:14:36;;;;;;;13.52;8.85;;;22.20;53.10;;;;;;4976771;28;20038;-19
2022/05/08 10:17:06;;;;;;;14.57;9.38;;;22.30;53.80;;;;;;4976623;28;20019;-19
2022/05/08 10:19:32;;;;;;;12.30;8.77;;;22.30;52.90;;;;;;4976569;28;20026;-18
2022/05/08 10:24:31;;;;;;;12.88;9.20;;;22.60;53.50;;;;;;4976256;28;20084;-18
2022/05/08 10:27:13;;;;;;;;;;;22.80;53.40;;;;;;4976942;28;20105;-18
2022/05/08 10:29:39;;;;;;;13.35;9.38;;;22.60;51.70;;;;;;4976692;28;19913;-17
2022/05/08 10:32:14;;;;;;;17.60;9.70;;;22.60;53.50;;;;;;4976522;28;20031;-17
2022/05/08 10:34:40;;;;;;;11.85;9.15;;;22.60;53.20;;;;;;4975656;28;20031;-19
2022/05/08 10:37:12;;;;;;;12.05;8.70;;;22.50;50.50;;;;;;4976183;28;20625;-19
2022/05/08 10:39:42;;;;;;;12.05;9.20;;;22.40;51.40;;;;;;4976013;28;20129;-19
2022/05/08 10:42:29;;;;;;;13.80;9.18;;;22.40;51.80;;;;;;4976165;28;20390;-19
2022/05/08 10:44:57;;;;;;;13.60;9.63;;;22.40;50.80;;;;;;4976192;28;20046;-18
2022/05/08 10:50:02;;;;;;;10.32;8.50;;;22.30;53.30;;;;;;4976036;28;20135;-19
2022/05/08 10:52:32;;;;;;;14.52;9.57;;;22.30;53.30;;;;;;4976069;28;20113;-18
2022/05/08 10:54:59;;;;;;;14.35;9.68;;;22.20;54.70;;;;;;4975826;28;20041;-19
2022/05/08 10:57:38;;;;;;;13.82;9.10;;;22.20;53.40;;;;;;4976215;28;20018;-19
2022/05/08 11:00:06;;;;;;;12.55;8.90;;;22.10;52.70;;;;;;4975934;28;20023;-19
2022/05/08 11:02:41;;;;;;;11.63;9.05;;;22.10;54.40;;;;;;4975833;28;20038;-19
2022/05/08 11:05:09;;;;;;;13.55;9.50;;;22.30;55.10;;;;;;4976234;28;20074;-19
2022/05/08 11:07:39;;;;;;;12.98;9.38;;;22.40;55.60;;;;;;4975989;28;20098;-18
2022/05/08 11:10:40;;;;;;;11.80;9.45;;;22.50;55.10;;;;;;4975765;28;20046;-19
2022/05/08 11:13:18;;;;;;;11.40;9.13;;;22.60;53.20;;;;;;4954256;29;20070;-18
2022/05/08 11:15:48;;;;;;;11.18;9.10;;;22.60;52.50;;;;;;4954331;29;20031;-19
2022/05/08 11:18:22;;;;;;;14.68;9.85;;;22.50;53.30;;;;;;4953952;29;20035;-20
2022/05/08 11:20:59;;;;;;;12.25;9.65;;;22.70;53.60;;;;;;4954171;29;20510;-19
2022/05/08 11:23:28;;;;;;;10.35;8.05;;;22.80;53.20;;;;;;4954031;29;20031;-19
2022/05/08 11:26:01;;;;;;;12.77;9.23;;;23.00;53.30;;;;;;4954235;29;20114;-18
2022/05/08 11:28:29;;;;;;;11.88;9.48;;;23.00;51.20;;;;;;4953942;29;20027;-18
2022/05/08 11:30:57;;;;;;;12.57;9.02;;;23.10;53.50;;;;;;4954445;29;20478;-18
2022/05/08 11:36:25;;;;;;;11.23;8.93;;;23.40;52.90;;;;;;4954128;29;20039;-19
2022/05/08 11:38:59;;;;;;;11.35;8.55;;;23.50;52.50;;;;;;4953474;29;20497;-19
2022/05/08 11:41:32;;;;;;;11.13;8.57;;;23.70;52.90;;;;;;4953793;29;20574;-18
2022/05/08 11:44:02;;;;;;;15.17;8.63;;;23.90;51.60;;;;;;4953804;29;20035;-19
2022/05/08 11:46:36;;;;;;;11.35;9.07;;;24.00;51.40;;;;;;4936547;29;20062;-19
2022/05/08 11:49:21;;;;;;;13.60;8.95;;;24.10;51.30;;;;;;4961319;28;20037;-18
2022/05/08 11:51:54;;;;;;;11.88;8.70;;;24.00;50.30;;;;;;4974929;28;20398;-18
2022/05/08 11:54:27;;;;;;;;;;;24.00;51.00;;;;;;4975020;28;20507;-20
2022/05/08 11:57:10;;;;;;;11.95;8.05;;;24.00;51.30;;;;;;4974869;28;19999;-17
2022/05/08 11:59:37;;;;;;;11.05;8.52;;;24.00;49.90;;;;;;4975144;28;20035;-19
2022/05/08 12:02:03;;;;;;;11.85;8.32;;;24.10;50.80;;;;;;4974853;28;20517;-20
2022/05/08 12:04:31;;;;;;;9.90;7.75;;;24.20;51.10;;;;;;4974496;28;20045;-19
2022/05/08 12:07:08;;;;;;;11.40;8.55;;;24.40;51.30;;;;;;4974641;28;20031;-18
2022/05/08 12:09:41;;;;;;;10.43;7.47;;;24.50;50.20;;;;;;4974807;28;20382;-18
2022/05/08 12:12:30;;;;;;;11.85;7.93;;;24.70;50.80;;;;;;4974912;28;20026;-15
2022/05/08 12:15:03;;;;;;;12.52;8.50;;;24.80;49.60;;;;;;4974551;28;20031;-18
2022/05/08 12:17:43;;;;;;;;;;;24.90;50.10;;;;;;4975329;28;20105;-20
2022/05/08 12:20:12;;;;;;;9.05;6.97;;;25.10;49.60;;;;;;4974823;28;19913;-20
2022/05/08 12:22:39;;;;;;;10.52;6.75;;;25.50;49.70;;;;;;4974764;28;20078;-19
2022/05/08 12:25:07;;;;;;;13.02;8.70;;;25.90;49.10;;;;;;4974634;28;20050;-18
2022/05/08 12:27:34;;;;;;;10.45;8.10;;;25.90;46.90;;;;;;4974567;28;20082;-18
2022/05/08 12:30:01;;;;;;;9.75;7.35;;;26.10;46.80;;;;;;4974657;28;20033;-20
2022/05/08 12:32:27;;;;;;;11.48;7.43;;;26.40;46.80;;;;;;4974283;28;20085;-18
2022/05/08 12:34:57;;;;;;;11.18;8.50;;;26.60;47.20;;;;;;4974594;28;20034;-19
2022/05/08 12:37:23;;;;;;;9.90;7.00;;;26.60;46.40;;;;;;4974634;28;20030;-18
2022/05/08 12:39:49;;;;;;;9.90;7.65;;;26.60;47.50;;;;;;4974051;28;20050;-18
2022/05/08 12:42:15;;;;;;;11.52;7.13;;;26.60;47.60;;;;;;4974282;28;20042;-17
2022/05/08 12:44:46;;;;;;;9.05;7.38;;;26.70;47.20;;;;;;4974482;28;20506;-18
2022/05/08 12:47:13;;;;;;;11.77;9.10;;;26.50;46.90;;;;;;4974755;28;20081;-17
2022/05/08 12:49:53;;;;;;;12.07;8.18;;;26.40;47.90;;;;;;5026810;23;20062;-13
2022/05/08 12:52:17;;;;;;;10.95;7.88;;;26.30;47.40;;;;;;5043156;23;20058;-18
2022/05/08 12:54:43;;;;;;;10.10;8.10;;;26.00;47.40;;;;;;4974549;28;20126;-18
2022/05/08 12:57:11;;;;;;;11.45;7.68;;;25.80;47.60;;;;;;4975733;28;20643;-18
2022/05/08 12:59:46;;;;;;;11.05;8.07;;;25.60;48.10;;;;;;4978352;28;20109;-16
2022/05/08 13:02:18;;;;;;;12.27;8.07;;;25.40;47.80;;;;;;4978372;28;20038;-18
2022/05/08 13:04:46;;;;;;;9.65;8.07;;;25.50;48.30;;;;;;4978258;28;20374;-18
2022/05/08 13:07:12;;;;;;;9.70;6.90;;;25.70;47.20;;;;;;4978129;28;20031;-17
2022/05/08 13:09:39;;;;;;;10.20;7.70;;;25.70;46.70;;;;;;4977969;28;20078;-18
2022/05/08 13:12:06;;;;;;;9.32;7.53;;;26.00;45.60;;;;;;4978290;28;20035;-19
2022/05/08 13:14:52;;;;;;;10.00;7.43;;;26.20;46.80;;;;;;4918633;29;20322;-18
2022/05/08 13:17:18;;;;;;;10.40;7.57;;;26.20;46.40;;;;;;4918287;29;20035;-18
2022/05/08 13:19:44;;;;;;;9.23;7.50;;;26.40;46.90;;;;;;4902471;29;20036;-18
2022/05/08 13:22:09;;;;;;;10.68;7.13;;;26.50;45.60;;;;;;4918122;29;20115;-18